sensor_id;sensor_type;location;lat;lon;timestamp;temperature;humidity
7028;DHT22;3555;53.248;10.336;2023-12-22T00:01:13;4.20;99.90
7028;DHT22;3555;53.248;10.336;2023-12-22T00:03:41;4.20;99.90
7028;DHT22;3555;53.248;10.336;2023-12-22T00:06:08;4.00;99.90
7028;DHT22;3555;53.248;10.336;2023-12-22T00:08:37;4.00;99.90
7028;DHT22;3555;53.248;10.336;2023-12-22T00:11:05;4.00;99.90
7028;DHT22;3555;53.248;10.336;2023-12-22T00:13:32;4.10;99.90
7028;DHT22;3555;53.248;10.336;2023-12-22T00:15:59;3.90;99.90
7028;DHT22;3555;53.248;10.336;2023-12-22T00:18:26;3.90;99.90
7028;DHT22;3555;53.248;10.336;2023-12-22T00:20:54;3.90;99.90
7028;DHT22;3555;53.248;10.336;2023-12-22T00:23:21;3.90;99.90
7028;DHT22;3555;53.248;10.336;2023-12-22T00:25:47;3.80;99.90
7028;DHT22;3555;53.248;10.336;2023-12-22T00:28:16;3.90;99.90
7028;DHT22;3555;53.248;10.336;2023-12-22T00:30:43;3.90;99.90
7028;DHT22;3555;53.248;10.336;2023-12-22T00:33:09;3.90;99.90
7028;DHT22;3555;53.248;10.336;2023-12-22T00:35:36;3.90;99.90
7028;DHT22;3555;53.248;10.336;2023-12-22T00:38:03;3.90;99.90
7028;DHT22;3555;53.248;10.336;2023-12-22T00:40:30;3.90;99.90
7028;DHT22;3555;53.248;10.336;2023-12-22T00:42:57;3.90;99.90
7028;DHT22;3555;53.248;10.336;2023-12-22T00:45:25;3.90;99.90
7028;DHT22;3555;53.248;10.336;2023-12-22T00:47:52;3.90;99.90
7028;DHT22;3555;53.248;10.336;2023-12-22T00:50:19;4.00;99.90
7028;DHT22;3555;53.248;10.336;2023-12-22T00:52:45;3.90;99.90
7028;DHT22;3555;53.248;10.336;2023-12-22T00:55:12;3.90;99.90
7028;DHT22;3555;53.248;10.336;2023-12-22T00:57:39;4.00;99.90
7028;DHT22;3555;53.248;10.336;2023-12-22T01:00:07;4.00;99.90
7028;DHT22;3555;53.248;10.336;2023-12-22T01:02:39;3.90;99.90
7028;DHT22;3555;53.248;10.336;2023-12-22T01:05:06;4.00;99.90
7028;DHT22;3555;53.248;10.336;2023-12-22T01:07:33;3.90;99.90
7028;DHT22;3555;53.248;10.336;2023-12-22T01:10:00;3.90;99.90
7028;DHT22;3555;53.248;10.336;2023-12-22T01:12:27;3.80;99.90
7028;DHT22;3555;53.248;10.336;2023-12-22T01:14:54;3.80;99.90
7028;DHT22;3555;53.248;10.336;2023-12-22T01:17:21;3.80;99.90
7028;DHT22;3555;53.248;10.336;2023-12-22T01:19:49;3.90;99.90
7028;DHT22;3555;53.248;10.336;2023-12-22T01:22:16;3.90;99.90
7028;DHT22;3555;53.248;10.336;2023-12-22T01:24:43;4.00;99.90
7028;DHT22;3555;53.248;10.336;2023-12-22T01:27:11;3.80;99.90
7028;DHT22;3555;53.248;10.336;2023-12-22T01:29:38;3.80;99.90
7028;DHT22;3555;53.248;10.336;2023-12-22T01:32:05;3.70;99.90
7028;DHT22;3555;53.248;10.336;2023-12-22T01:34:32;3.70;99.90
7028;DHT22;3555;53.248;10.336;2023-12-22T01:37:00;3.50;99.90
7028;DHT22;3555;53.248;10.336;2023-12-22T01:39:27;3.40;99.90
7028;DHT22;3555;53.248;10.336;2023-12-22T01:41:54;3.40;99.90
7028;DHT22;3555;53.248;10.336;2023-12-22T01:44:21;3.50;99.90
7028;DHT22;3555;53.248;10.336;2023-12-22T01:46:49;3.60;99.90
7028;DHT22;3555;53.248;10.336;2023-12-22T01:49:16;3.60;99.90
7028;DHT22;3555;53.248;10.336;2023-12-22T01:51:44;3.60;99.90
7028;DHT22;3555;53.248;10.336;2023-12-22T01:54:13;3.70;99.90
7028;DHT22;3555;53.248;10.336;2023-12-22T01:56:41;3.60;99.90
7028;DHT22;3555;53.248;10.336;2023-12-22T01:59:08;3.60;99.90
7028;DHT22;3555;53.248;10.336;2023-12-22T02:01:36;3.40;99.90
7028;DHT22;3555;53.248;10.336;2023-12-22T02:04:03;3.40;99.90
7028;DHT22;3555;53.248;10.336;2023-12-22T02:06:32;3.40;99.90
7028;DHT22;3555;53.248;10.336;2023-12-22T02:09:02;3.50;99.90
7028;DHT22;3555;53.248;10.336;2023-12-22T02:11:31;3.50;99.90
7028;DHT22;3555;53.248;10.336;2023-12-22T02:13:58;3.60;99.90
7028;DHT22;3555;53.248;10.336;2023-12-22T02:16:31;3.60;99.90
7028;DHT22;3555;53.248;10.336;2023-12-22T02:19:04;3.60;99.90
7028;DHT22;3555;53.248;10.336;2023-12-22T02:21:34;3.60;99.90
7028;DHT22;3555;53.248;10.336;2023-12-22T02:24:05;3.50;99.90
7028;DHT22;3555;53.248;10.336;2023-12-22T02:26:41;3.50;99.90
7028;DHT22;3555;53.248;10.336;2023-12-22T02:29:12;3.40;99.90
7028;DHT22;3555;53.248;10.336;2023-12-22T02:31:43;3.40;99.90
7028;DHT22;3555;53.248;10.336;2023-12-22T02:34:18;3.50;99.90
7028;DHT22;3555;53.248;10.336;2023-12-22T02:36:46;3.50;99.90
7028;DHT22;3555;53.248;10.336;2023-12-22T02:39:17;3.50;99.90
7028;DHT22;3555;53.248;10.336;2023-12-22T02:41:45;3.50;99.90
7028;DHT22;3555;53.248;10.336;2023-12-22T02:44:13;3.70;99.90
7028;DHT22;3555;53.248;10.336;2023-12-22T02:46:39;3.50;99.90
7028;DHT22;3555;53.248;10.336;2023-12-22T02:49:09;3.60;99.90
7028;DHT22;3555;53.248;10.336;2023-12-22T02:51:36;3.50;99.90
7028;DHT22;3555;53.248;10.336;2023-12-22T02:54:02;3.60;99.90
7028;DHT22;3555;53.248;10.336;2023-12-22T02:56:31;3.60;99.90
7028;DHT22;3555;53.248;10.336;2023-12-22T02:58:58;3.70;99.90
7028;DHT22;3555;53.248;10.336;2023-12-22T03:01:24;3.70;99.90
7028;DHT22;3555;53.248;10.336;2023-12-22T03:03:51;3.70;99.90
7028;DHT22;3555;53.248;10.336;2023-12-22T03:06:18;3.70;99.90
7028;DHT22;3555;53.248;10.336;2023-12-22T03:08:45;3.80;99.90
7028;DHT22;3555;53.248;10.336;2023-12-22T03:11:12;3.90;99.90
7028;DHT22;3555;53.248;10.336;2023-12-22T03:13:40;3.90;99.90
7028;DHT22;3555;53.248;10.336;2023-12-22T03:16:08;3.90;99.90
7028;DHT22;3555;53.248;10.336;2023-12-22T03:18:35;3.80;99.90
7028;DHT22;3555;53.248;10.336;2023-12-22T03:21:04;3.80;99.90
7028;DHT22;3555;53.248;10.336;2023-12-22T03:23:31;3.80;99.90
7028;DHT22;3555;53.248;10.336;2023-12-22T03:25:57;3.90;99.90
7028;DHT22;3555;53.248;10.336;2023-12-22T03:28:24;3.90;99.90
7028;DHT22;3555;53.248;10.336;2023-12-22T03:30:52;3.90;99.90
7028;DHT22;3555;53.248;10.336;2023-12-22T03:33:19;3.90;99.90
7028;DHT22;3555;53.248;10.336;2023-12-22T03:35:46;3.90;99.90
7028;DHT22;3555;53.248;10.336;2023-12-22T03:38:13;3.90;99.90
7028;DHT22;3555;53.248;10.336;2023-12-22T03:40:40;3.50;99.90
7028;DHT22;3555;53.248;10.336;2023-12-22T03:43:06;3.10;99.90
7028;DHT22;3555;53.248;10.336;2023-12-22T03:45:33;2.80;99.90
7028;DHT22;3555;53.248;10.336;2023-12-22T03:48:01;2.60;99.90
7028;DHT22;3555;53.248;10.336;2023-12-22T03:50:28;2.50;99.90
7028;DHT22;3555;53.248;10.336;2023-12-22T03:52:55;2.40;99.90
7028;DHT22;3555;53.248;10.336;2023-12-22T03:55:23;2.70;99.90
7028;DHT22;3555;53.248;10.336;2023-12-22T03:57:49;2.50;99.90
7028;DHT22;3555;53.248;10.336;2023-12-22T04:00:17;2.50;99.90
7028;DHT22;3555;53.248;10.336;2023-12-22T04:02:44;2.60;99.90
7028;DHT22;3555;53.248;10.336;2023-12-22T04:05:12;2.50;99.90
7028;DHT22;3555;53.248;10.336;2023-12-22T04:07:39;2.60;99.90
7028;DHT22;3555;53.248;10.336;2023-12-22T04:10:07;2.70;99.90
7028;DHT22;3555;53.248;10.336;2023-12-22T04:12:34;2.70;99.90
7028;DHT22;3555;53.248;10.336;2023-12-22T04:15:02;2.80;99.90
7028;DHT22;3555;53.248;10.336;2023-12-22T04:17:29;2.80;99.90
7028;DHT22;3555;53.248;10.336;2023-12-22T04:19:56;2.80;99.90
7028;DHT22;3555;53.248;10.336;2023-12-22T04:22:24;2.80;99.90
7028;DHT22;3555;53.248;10.336;2023-12-22T04:24:51;2.80;99.90
7028;DHT22;3555;53.248;10.336;2023-12-22T04:27:18;2.80;99.90
7028;DHT22;3555;53.248;10.336;2023-12-22T04:29:44;2.80;99.90
7028;DHT22;3555;53.248;10.336;2023-12-22T04:32:11;2.80;99.90
7028;DHT22;3555;53.248;10.336;2023-12-22T04:34:38;2.90;99.90
7028;DHT22;3555;53.248;10.336;2023-12-22T04:37:05;2.80;99.90
7028;DHT22;3555;53.248;10.336;2023-12-22T04:39:33;2.80;99.90
7028;DHT22;3555;53.248;10.336;2023-12-22T04:42:00;2.80;99.90
7028;DHT22;3555;53.248;10.336;2023-12-22T04:44:27;2.90;99.90
7028;DHT22;3555;53.248;10.336;2023-12-22T04:46:54;2.80;99.90
7028;DHT22;3555;53.248;10.336;2023-12-22T04:49:21;2.80;99.90
7028;DHT22;3555;53.248;10.336;2023-12-22T04:51:47;2.70;99.90
7028;DHT22;3555;53.248;10.336;2023-12-22T04:54:14;2.70;99.90
7028;DHT22;3555;53.248;10.336;2023-12-22T04:56:42;2.80;99.90
7028;DHT22;3555;53.248;10.336;2023-12-22T04:59:09;2.80;99.90
7028;DHT22;3555;53.248;10.336;2023-12-22T05:01:36;2.80;99.90
7028;DHT22;3555;53.248;10.336;2023-12-22T05:04:03;2.90;99.90
7028;DHT22;3555;53.248;10.336;2023-12-22T05:06:30;2.90;99.90
7028;DHT22;3555;53.248;10.336;2023-12-22T05:08:57;2.90;99.90
7028;DHT22;3555;53.248;10.336;2023-12-22T05:11:24;2.90;99.90
7028;DHT22;3555;53.248;10.336;2023-12-22T05:13:52;2.90;99.90
7028;DHT22;3555;53.248;10.336;2023-12-22T05:16:19;3.00;99.90
7028;DHT22;3555;53.248;10.336;2023-12-22T05:18:46;3.00;99.90
7028;DHT22;3555;53.248;10.336;2023-12-22T05:21:13;3.00;99.90
7028;DHT22;3555;53.248;10.336;2023-12-22T05:23:40;3.10;99.90
7028;DHT22;3555;53.248;10.336;2023-12-22T05:26:07;3.20;99.90
7028;DHT22;3555;53.248;10.336;2023-12-22T05:28:34;3.10;99.90
7028;DHT22;3555;53.248;10.336;2023-12-22T05:31:02;3.00;99.90
7028;DHT22;3555;53.248;10.336;2023-12-22T05:33:29;3.10;99.90
7028;DHT22;3555;53.248;10.336;2023-12-22T05:35:56;3.10;99.90
7028;DHT22;3555;53.248;10.336;2023-12-22T05:38:23;3.10;99.90
7028;DHT22;3555;53.248;10.336;2023-12-22T05:40:49;3.10;99.90
7028;DHT22;3555;53.248;10.336;2023-12-22T05:43:16;3.20;99.90
7028;DHT22;3555;53.248;10.336;2023-12-22T05:45:43;3.20;99.90
7028;DHT22;3555;53.248;10.336;2023-12-22T05:48:11;3.20;99.90
7028;DHT22;3555;53.248;10.336;2023-12-22T05:50:38;3.30;99.90
7028;DHT22;3555;53.248;10.336;2023-12-22T05:53:05;3.20;99.90
7028;DHT22;3555;53.248;10.336;2023-12-22T05:55:32;3.20;99.90
7028;DHT22;3555;53.248;10.336;2023-12-22T05:57:58;3.20;99.90
7028;DHT22;3555;53.248;10.336;2023-12-22T06:00:25;3.20;99.90
7028;DHT22;3555;53.248;10.336;2023-12-22T06:02:52;3.10;99.90
7028;DHT22;3555;53.248;10.336;2023-12-22T06:05:20;3.10;99.90
7028;DHT22;3555;53.248;10.336;2023-12-22T06:07:47;3.10;99.90
7028;DHT22;3555;53.248;10.336;2023-12-22T06:10:14;3.10;99.90
7028;DHT22;3555;53.248;10.336;2023-12-22T06:12:41;3.10;99.90
7028;DHT22;3555;53.248;10.336;2023-12-22T06:15:09;3.10;99.90
7028;DHT22;3555;53.248;10.336;2023-12-22T06:17:36;3.10;99.90
7028;DHT22;3555;53.248;10.336;2023-12-22T06:20:03;3.00;99.90
7028;DHT22;3555;53.248;10.336;2023-12-22T06:22:31;3.00;99.90
7028;DHT22;3555;53.248;10.336;2023-12-22T06:24:58;3.30;99.90
7028;DHT22;3555;53.248;10.336;2023-12-22T06:27:25;2.90;99.90
7028;DHT22;3555;53.248;10.336;2023-12-22T06:29:52;2.80;99.90
7028;DHT22;3555;53.248;10.336;2023-12-22T06:32:21;2.80;99.90
7028;DHT22;3555;53.248;10.336;2023-12-22T06:34:48;2.60;99.90
7028;DHT22;3555;53.248;10.336;2023-12-22T06:37:15;2.60;99.90
7028;DHT22;3555;53.248;10.336;2023-12-22T06:39:43;2.60;99.90
7028;DHT22;3555;53.248;10.336;2023-12-22T06:42:10;2.50;99.90
7028;DHT22;3555;53.248;10.336;2023-12-22T06:44:38;2.60;99.90
7028;DHT22;3555;53.248;10.336;2023-12-22T06:47:05;2.60;99.90
7028;DHT22;3555;53.248;10.336;2023-12-22T06:49:32;2.60;99.90
7028;DHT22;3555;53.248;10.336;2023-12-22T06:51:59;2.60;99.90
7028;DHT22;3555;53.248;10.336;2023-12-22T06:54:27;2.60;99.90
7028;DHT22;3555;53.248;10.336;2023-12-22T06:56:56;2.50;99.90
7028;DHT22;3555;53.248;10.336;2023-12-22T06:59:22;2.50;99.90
7028;DHT22;3555;53.248;10.336;2023-12-22T07:01:49;2.50;99.90
7028;DHT22;3555;53.248;10.336;2023-12-22T07:04:16;2.50;99.90
7028;DHT22;3555;53.248;10.336;2023-12-22T07:06:44;2.40;99.90
7028;DHT22;3555;53.248;10.336;2023-12-22T07:09:32;2.40;99.90
7028;DHT22;3555;53.248;10.336;2023-12-22T07:12:00;2.40;99.90
7028;DHT22;3555;53.248;10.336;2023-12-22T07:14:29;2.40;99.90
7028;DHT22;3555;53.248;10.336;2023-12-22T07:16:56;2.40;99.90
7028;DHT22;3555;53.248;10.336;2023-12-22T07:19:25;2.40;99.90
7028;DHT22;3555;53.248;10.336;2023-12-22T07:21:52;2.30;99.90
7028;DHT22;3555;53.248;10.336;2023-12-22T07:24:19;2.30;99.90
7028;DHT22;3555;53.248;10.336;2023-12-22T07:26:46;2.40;99.90
7028;DHT22;3555;53.248;10.336;2023-12-22T07:29:14;2.30;99.90
7028;DHT22;3555;53.248;10.336;2023-12-22T07:31:41;2.40;99.90
7028;DHT22;3555;53.248;10.336;2023-12-22T07:34:08;2.50;99.90
7028;DHT22;3555;53.248;10.336;2023-12-22T07:36:34;2.50;99.90
7028;DHT22;3555;53.248;10.336;2023-12-22T07:39:01;2.50;99.90
7028;DHT22;3555;53.248;10.336;2023-12-22T07:41:28;2.60;99.90
7028;DHT22;3555;53.248;10.336;2023-12-22T07:43:55;2.60;99.90
7028;DHT22;3555;53.248;10.336;2023-12-22T07:46:23;2.50;99.90
7028;DHT22;3555;53.248;10.336;2023-12-22T07:48:50;2.60;99.90
7028;DHT22;3555;53.248;10.336;2023-12-22T07:51:17;2.60;99.90
7028;DHT22;3555;53.248;10.336;2023-12-22T07:53:44;2.70;99.90
7028;DHT22;3555;53.248;10.336;2023-12-22T07:56:11;2.70;99.90
7028;DHT22;3555;53.248;10.336;2023-12-22T07:58:37;2.80;99.90
7028;DHT22;3555;53.248;10.336;2023-12-22T08:01:04;3.00;99.90
7028;DHT22;3555;53.248;10.336;2023-12-22T08:03:33;2.90;99.90
7028;DHT22;3555;53.248;10.336;2023-12-22T08:06:00;3.00;99.90
7028;DHT22;3555;53.248;10.336;2023-12-22T08:08:28;3.10;99.90
7028;DHT22;3555;53.248;10.336;2023-12-22T08:10:55;3.30;99.90
7028;DHT22;3555;53.248;10.336;2023-12-22T08:13:21;3.30;99.90
7028;DHT22;3555;53.248;10.336;2023-12-22T08:15:48;3.10;99.90
7028;DHT22;3555;53.248;10.336;2023-12-22T08:18:15;3.00;99.90
7028;DHT22;3555;53.248;10.336;2023-12-22T08:20:44;3.00;99.90
7028;DHT22;3555;53.248;10.336;2023-12-22T08:23:10;2.80;99.90
7028;DHT22;3555;53.248;10.336;2023-12-22T08:25:38;2.90;99.90
7028;DHT22;3555;53.248;10.336;2023-12-22T08:28:06;2.90;99.90
7028;DHT22;3555;53.248;10.336;2023-12-22T08:30:33;2.90;99.90
7028;DHT22;3555;53.248;10.336;2023-12-22T08:33:00;3.00;99.90
7028;DHT22;3555;53.248;10.336;2023-12-22T08:35:27;3.00;99.90
7028;DHT22;3555;53.248;10.336;2023-12-22T08:37:56;3.10;99.90
7028;DHT22;3555;53.248;10.336;2023-12-22T08:40:23;3.10;99.90
7028;DHT22;3555;53.248;10.336;2023-12-22T08:42:52;3.10;99.90
7028;DHT22;3555;53.248;10.336;2023-12-22T08:45:25;3.30;99.90
7028;DHT22;3555;53.248;10.336;2023-12-22T08:47:54;3.30;99.90
7028;DHT22;3555;53.248;10.336;2023-12-22T08:50:20;3.30;99.90
7028;DHT22;3555;53.248;10.336;2023-12-22T08:52:47;3.30;99.90
7028;DHT22;3555;53.248;10.336;2023-12-22T08:55:15;3.20;99.90
7028;DHT22;3555;53.248;10.336;2023-12-22T08:57:42;3.20;99.90
7028;DHT22;3555;53.248;10.336;2023-12-22T09:00:10;3.20;99.90
7028;DHT22;3555;53.248;10.336;2023-12-22T09:02:37;3.10;99.90
7028;DHT22;3555;53.248;10.336;2023-12-22T09:05:04;3.00;99.90
7028;DHT22;3555;53.248;10.336;2023-12-22T09:07:32;3.00;99.90
7028;DHT22;3555;53.248;10.336;2023-12-22T09:09:59;3.00;99.90
7028;DHT22;3555;53.248;10.336;2023-12-22T09:12:28;3.00;99.90
7028;DHT22;3555;53.248;10.336;2023-12-22T09:14:54;3.10;99.90
7028;DHT22;3555;53.248;10.336;2023-12-22T09:17:21;3.10;99.90
7028;DHT22;3555;53.248;10.336;2023-12-22T09:19:48;3.10;99.90
7028;DHT22;3555;53.248;10.336;2023-12-22T09:22:15;3.20;99.90
7028;DHT22;3555;53.248;10.336;2023-12-22T09:24:42;3.30;99.90
7028;DHT22;3555;53.248;10.336;2023-12-22T09:27:09;3.30;99.90
7028;DHT22;3555;53.248;10.336;2023-12-22T09:29:37;3.30;99.90
7028;DHT22;3555;53.248;10.336;2023-12-22T09:32:05;3.30;99.90
7028;DHT22;3555;53.248;10.336;2023-12-22T09:34:32;3.30;99.90
7028;DHT22;3555;53.248;10.336;2023-12-22T09:36:59;3.40;99.90
7028;DHT22;3555;53.248;10.336;2023-12-22T09:39:25;3.40;99.90
7028;DHT22;3555;53.248;10.336;2023-12-22T09:41:54;3.50;99.90
7028;DHT22;3555;53.248;10.336;2023-12-22T09:44:21;3.70;99.90
7028;DHT22;3555;53.248;10.336;2023-12-22T09:46:50;3.90;99.90
7028;DHT22;3555;53.248;10.336;2023-12-22T09:49:18;3.90;99.90
7028;DHT22;3555;53.248;10.336;2023-12-22T09:51:46;3.90;99.90
7028;DHT22;3555;53.248;10.336;2023-12-22T09:54:13;4.00;99.90
7028;DHT22;3555;53.248;10.336;2023-12-22T09:56:41;3.80;99.90
7028;DHT22;3555;53.248;10.336;2023-12-22T09:59:10;3.90;99.90
7028;DHT22;3555;53.248;10.336;2023-12-22T10:01:40;3.90;99.90
7028;DHT22;3555;53.248;10.336;2023-12-22T10:04:10;4.00;99.90
7028;DHT22;3555;53.248;10.336;2023-12-22T10:06:37;4.00;99.90
7028;DHT22;3555;53.248;10.336;2023-12-22T10:09:05;4.10;99.90
7028;DHT22;3555;53.248;10.336;2023-12-22T10:11:35;4.10;99.90
7028;DHT22;3555;53.248;10.336;2023-12-22T10:14:03;4.10;99.90
7028;DHT22;3555;53.248;10.336;2023-12-22T10:16:31;4.20;99.90
7028;DHT22;3555;53.248;10.336;2023-12-22T10:18:59;4.40;99.90
7028;DHT22;3555;53.248;10.336;2023-12-22T10:21:27;4.60;99.90
7028;DHT22;3555;53.248;10.336;2023-12-22T10:23:56;4.70;99.90
7028;DHT22;3555;53.248;10.336;2023-12-22T10:26:23;4.90;99.90
7028;DHT22;3555;53.248;10.336;2023-12-22T10:28:50;5.20;99.90
7028;DHT22;3555;53.248;10.336;2023-12-22T10:31:17;5.20;99.90
7028;DHT22;3555;53.248;10.336;2023-12-22T10:33:44;5.10;99.90
7028;DHT22;3555;53.248;10.336;2023-12-22T10:36:11;5.10;99.90
7028;DHT22;3555;53.248;10.336;2023-12-22T10:38:39;5.00;99.90
7028;DHT22;3555;53.248;10.336;2023-12-22T10:41:08;4.90;99.90
7028;DHT22;3555;53.248;10.336;2023-12-22T10:43:39;4.90;99.90
7028;DHT22;3555;53.248;10.336;2023-12-22T10:46:06;4.80;99.90
7028;DHT22;3555;53.248;10.336;2023-12-22T10:48:34;4.80;99.90
7028;DHT22;3555;53.248;10.336;2023-12-22T10:51:01;4.80;99.90
7028;DHT22;3555;53.248;10.336;2023-12-22T10:53:28;4.70;99.90
7028;DHT22;3555;53.248;10.336;2023-12-22T10:55:58;4.70;99.90
7028;DHT22;3555;53.248;10.336;2023-12-22T10:58:25;4.60;99.90
7028;DHT22;3555;53.248;10.336;2023-12-22T11:00:52;4.60;99.90
7028;DHT22;3555;53.248;10.336;2023-12-22T11:03:23;4.50;99.90
7028;DHT22;3555;53.248;10.336;2023-12-22T11:05:51;4.50;99.90
7028;DHT22;3555;53.248;10.336;2023-12-22T11:08:19;4.50;99.90
7028;DHT22;3555;53.248;10.336;2023-12-22T11:10:51;4.40;99.90
7028;DHT22;3555;53.248;10.336;2023-12-22T11:13:23;4.30;99.90
7028;DHT22;3555;53.248;10.336;2023-12-22T11:15:50;4.20;99.90
7028;DHT22;3555;53.248;10.336;2023-12-22T11:18:18;4.10;99.90
7028;DHT22;3555;53.248;10.336;2023-12-22T11:20:47;3.90;99.90
7028;DHT22;3555;53.248;10.336;2023-12-22T11:23:16;3.90;99.90
7028;DHT22;3555;53.248;10.336;2023-12-22T11:25:44;4.00;99.90
7028;DHT22;3555;53.248;10.336;2023-12-22T11:28:16;4.00;99.90
7028;DHT22;3555;53.248;10.336;2023-12-22T11:30:49;4.00;99.90
7028;DHT22;3555;53.248;10.336;2023-12-22T11:33:18;3.90;99.90
7028;DHT22;3555;53.248;10.336;2023-12-22T11:35:46;3.80;99.90
7028;DHT22;3555;53.248;10.336;2023-12-22T11:38:13;3.80;99.90
7028;DHT22;3555;53.248;10.336;2023-12-22T11:40:40;3.70;99.90
7028;DHT22;3555;53.248;10.336;2023-12-22T11:43:08;3.70;99.90
7028;DHT22;3555;53.248;10.336;2023-12-22T11:45:35;3.70;99.90
7028;DHT22;3555;53.248;10.336;2023-12-22T11:48:07;3.60;99.90
7028;DHT22;3555;53.248;10.336;2023-12-22T11:50:34;3.50;99.90
7028;DHT22;3555;53.248;10.336;2023-12-22T11:53:18;3.50;99.90
7028;DHT22;3555;53.248;10.336;2023-12-22T11:56:01;3.40;99.90
7028;DHT22;3555;53.248;10.336;2023-12-22T11:58:36;3.40;99.90
7028;DHT22;3555;53.248;10.336;2023-12-22T12:01:06;3.30;99.90
7028;DHT22;3555;53.248;10.336;2023-12-22T12:03:36;3.30;99.90
7028;DHT22;3555;53.248;10.336;2023-12-22T12:06:21;3.30;99.90
7028;DHT22;3555;53.248;10.336;2023-12-22T12:08:48;3.30;99.90
7028;DHT22;3555;53.248;10.336;2023-12-22T12:11:16;3.20;99.90
7028;DHT22;3555;53.248;10.336;2023-12-22T12:13:45;3.30;99.90
7028;DHT22;3555;53.248;10.336;2023-12-22T12:16:12;3.30;99.90
7028;DHT22;3555;53.248;10.336;2023-12-22T12:18:41;3.30;99.90
7028;DHT22;3555;53.248;10.336;2023-12-22T12:21:09;3.40;99.90
7028;DHT22;3555;53.248;10.336;2023-12-22T12:23:37;3.50;99.90
7028;DHT22;3555;53.248;10.336;2023-12-22T12:26:06;3.50;99.90
7028;DHT22;3555;53.248;10.336;2023-12-22T12:28:35;3.50;99.90
7028;DHT22;3555;53.248;10.336;2023-12-22T12:31:04;3.50;99.90
7028;DHT22;3555;53.248;10.336;2023-12-22T12:33:32;3.60;99.90
7028;DHT22;3555;53.248;10.336;2023-12-22T12:36:01;3.60;99.90
7028;DHT22;3555;53.248;10.336;2023-12-22T12:38:40;3.60;99.90
7028;DHT22;3555;53.248;10.336;2023-12-22T12:41:10;3.80;99.90
7028;DHT22;3555;53.248;10.336;2023-12-22T12:43:41;3.90;99.90
7028;DHT22;3555;53.248;10.336;2023-12-22T12:46:09;3.90;99.90
7028;DHT22;3555;53.248;10.336;2023-12-22T12:48:36;4.10;99.90
7028;DHT22;3555;53.248;10.336;2023-12-22T12:51:05;4.30;99.90
7028;DHT22;3555;53.248;10.336;2023-12-22T12:53:32;4.40;99.90
7028;DHT22;3555;53.248;10.336;2023-12-22T12:56:01;4.30;99.90
7028;DHT22;3555;53.248;10.336;2023-12-22T12:58:28;4.50;99.90
7028;DHT22;3555;53.248;10.336;2023-12-22T13:01:06;4.50;99.90
7028;DHT22;3555;53.248;10.336;2023-12-22T13:03:33;4.40;99.90
7028;DHT22;3555;53.248;10.336;2023-12-22T13:06:07;4.40;99.90
7028;DHT22;3555;53.248;10.336;2023-12-22T13:08:34;4.50;99.90
7028;DHT22;3555;53.248;10.336;2023-12-22T13:11:03;4.40;99.90
7028;DHT22;3555;53.248;10.336;2023-12-22T13:13:30;4.50;99.90
7028;DHT22;3555;53.248;10.336;2023-12-22T13:16:06;4.60;99.90
7028;DHT22;3555;53.248;10.336;2023-12-22T13:18:33;4.60;99.90
7028;DHT22;3555;53.248;10.336;2023-12-22T13:21:00;4.50;99.90
7028;DHT22;3555;53.248;10.336;2023-12-22T13:23:30;4.60;99.90
7028;DHT22;3555;53.248;10.336;2023-12-22T13:25:57;4.70;99.90
7028;DHT22;3555;53.248;10.336;2023-12-22T13:28:27;4.60;99.90
7028;DHT22;3555;53.248;10.336;2023-12-22T13:30:55;4.60;99.90
7028;DHT22;3555;53.248;10.336;2023-12-22T13:33:22;4.60;99.90
7028;DHT22;3555;53.248;10.336;2023-12-22T13:35:50;4.50;99.90
7028;DHT22;3555;53.248;10.336;2023-12-22T13:38:18;4.50;99.90
7028;DHT22;3555;53.248;10.336;2023-12-22T13:40:47;4.60;99.90
7028;DHT22;3555;53.248;10.336;2023-12-22T13:43:14;4.40;99.90
7028;DHT22;3555;53.248;10.336;2023-12-22T13:45:41;4.50;99.90
7028;DHT22;3555;53.248;10.336;2023-12-22T13:48:08;4.60;99.90
7028;DHT22;3555;53.248;10.336;2023-12-22T13:50:35;4.40;99.90
7028;DHT22;3555;53.248;10.336;2023-12-22T13:53:09;4.50;99.90
7028;DHT22;3555;53.248;10.336;2023-12-22T13:55:36;4.50;99.90
7028;DHT22;3555;53.248;10.336;2023-12-22T13:58:05;4.70;99.90
7028;DHT22;3555;53.248;10.336;2023-12-22T14:00:33;4.60;99.90
7028;DHT22;3555;53.248;10.336;2023-12-22T14:03:01;4.50;99.90
7028;DHT22;3555;53.248;10.336;2023-12-22T14:05:28;4.50;99.90
7028;DHT22;3555;53.248;10.336;2023-12-22T14:07:55;4.50;99.90
7028;DHT22;3555;53.248;10.336;2023-12-22T14:10:22;4.50;99.90
7028;DHT22;3555;53.248;10.336;2023-12-22T14:12:49;4.60;99.90
7028;DHT22;3555;53.248;10.336;2023-12-22T14:15:18;4.50;99.90
7028;DHT22;3555;53.248;10.336;2023-12-22T14:17:45;4.50;99.90
7028;DHT22;3555;53.248;10.336;2023-12-22T14:20:12;4.40;99.90
7028;DHT22;3555;53.248;10.336;2023-12-22T14:22:40;4.50;99.90
7028;DHT22;3555;53.248;10.336;2023-12-22T14:25:08;4.40;99.90
7028;DHT22;3555;53.248;10.336;2023-12-22T14:27:34;4.50;99.90
7028;DHT22;3555;53.248;10.336;2023-12-22T14:30:01;4.50;99.90
7028;DHT22;3555;53.248;10.336;2023-12-22T14:32:30;4.60;99.90
7028;DHT22;3555;53.248;10.336;2023-12-22T14:34:57;4.60;99.90
7028;DHT22;3555;53.248;10.336;2023-12-22T14:37:23;4.70;99.90
7028;DHT22;3555;53.248;10.336;2023-12-22T14:39:51;4.60;99.90
7028;DHT22;3555;53.248;10.336;2023-12-22T14:42:18;4.60;99.90
7028;DHT22;3555;53.248;10.336;2023-12-22T14:44:45;4.60;99.90
7028;DHT22;3555;53.248;10.336;2023-12-22T14:47:11;4.70;99.90
7028;DHT22;3555;53.248;10.336;2023-12-22T14:52:42;4.50;99.90
7028;DHT22;3555;53.248;10.336;2023-12-22T14:55:11;4.40;99.90
7028;DHT22;3555;53.248;10.336;2023-12-22T14:57:38;4.30;99.90
7028;DHT22;3555;53.248;10.336;2023-12-22T15:00:06;4.40;99.90
7028;DHT22;3555;53.248;10.336;2023-12-22T15:02:35;4.50;99.90
7028;DHT22;3555;53.248;10.336;2023-12-22T15:05:02;4.60;99.90
7028;DHT22;3555;53.248;10.336;2023-12-22T15:07:29;4.60;99.90
7028;DHT22;3555;53.248;10.336;2023-12-22T15:09:58;4.60;99.90
7028;DHT22;3555;53.248;10.336;2023-12-22T15:12:25;4.70;99.90
7028;DHT22;3555;53.248;10.336;2023-12-22T15:14:54;4.70;99.90
7028;DHT22;3555;53.248;10.336;2023-12-22T15:17:21;4.60;99.90
7028;DHT22;3555;53.248;10.336;2023-12-22T15:19:48;4.60;99.90
7028;DHT22;3555;53.248;10.336;2023-12-22T15:22:15;4.50;99.90
7028;DHT22;3555;53.248;10.336;2023-12-22T15:24:43;4.40;99.90
7028;DHT22;3555;53.248;10.336;2023-12-22T15:27:11;4.40;99.90
7028;DHT22;3555;53.248;10.336;2023-12-22T15:29:38;4.30;99.90
7028;DHT22;3555;53.248;10.336;2023-12-22T15:32:06;4.40;99.90
7028;DHT22;3555;53.248;10.336;2023-12-22T15:34:32;4.50;99.90
7028;DHT22;3555;53.248;10.336;2023-12-22T15:36:59;4.50;99.90
7028;DHT22;3555;53.248;10.336;2023-12-22T15:39:26;4.40;99.90
7028;DHT22;3555;53.248;10.336;2023-12-22T15:41:53;4.40;99.90
7028;DHT22;3555;53.248;10.336;2023-12-22T15:44:21;4.30;99.90
7028;DHT22;3555;53.248;10.336;2023-12-22T15:46:48;4.30;99.90
7028;DHT22;3555;53.248;10.336;2023-12-22T15:49:15;4.40;99.90
7028;DHT22;3555;53.248;10.336;2023-12-22T15:51:42;4.50;99.90
7028;DHT22;3555;53.248;10.336;2023-12-22T15:54:09;4.50;99.90
7028;DHT22;3555;53.248;10.336;2023-12-22T15:56:36;4.40;99.90
7028;DHT22;3555;53.248;10.336;2023-12-22T15:59:03;4.30;99.90
7028;DHT22;3555;53.248;10.336;2023-12-22T16:01:31;4.30;99.90
7028;DHT22;3555;53.248;10.336;2023-12-22T16:03:58;4.30;99.90
7028;DHT22;3555;53.248;10.336;2023-12-22T16:06:25;4.40;99.90
7028;DHT22;3555;53.248;10.336;2023-12-22T16:08:52;4.40;99.90